Terminal Aerodrome Forecast
Issued by NWS Lake Charles, LA

Home | Current Version | Previous Version | Text Only | Print | Product List | Glossary On
Versions: 1 2 3 4 5 6 7 8 9 10 11 12 13 14
000
FTUS44 KLCH 290900 AAA
TAFARA
TAF AMD
KARA 290940Z 2910/3006 17004KT 3SM MIFG SKC
      TEMPO 2910/2913 1SM BR
     FM291400 18008KT P6SM SCT015 BKN035
     FM291600 19012G20KT P6SM BKN035
     FM292200 17008KT P6SM SCT035=

USA.gov is the U.S. government's official web portal to all federal, state and local government web resources and services.